Time;durP1;ratioP1;P1;durP2;ratioP2;P2;SDS_P1;SDS_P2;PMS_P1;PMS_P2;Temp;Humidity;BMP_temperature;BMP_pressure;BME280_temperature;BME280_humidity;BME280_pressure;Samples;Min_cycle;Max_cycle;Signal;HPM_P1;HPM_P2
2022/05/13 00:04:36;;;;;;;16.08;10.32;;;;;;;12.24;75.19;97922.06;10249765;28;20457;-59
2022/05/13 00:14:54;;;;;;;11.65;8.55;;;;;;;12.17;75.68;97928.19;10220951;28;20458;-59
2022/05/13 00:19:53;;;;;;;12.15;8.98;;;;;;;12.10;75.67;97924.75;10240341;28;20715;-59
2022/05/13 00:24:54;;;;;;;13.50;9.07;;;;;;;12.00;75.58;97907.44;10244108;28;20081;-59
2022/05/13 00:29:53;;;;;;;14.15;9.70;;;;;;;11.95;75.91;97908.34;10224385;28;20069;-59
2022/05/13 00:34:52;;;;;;;13.45;9.43;;;;;;;11.90;76.74;97910.97;10254525;28;20036;-59
2022/05/13 00:39:51;;;;;;;10.90;8.32;;;;;;;11.83;77.38;97925.72;10249695;28;20034;-59
2022/05/13 00:44:50;;;;;;;13.35;8.63;;;;;;;11.79;77.75;97924.00;10258684;28;20038;-59
2022/05/13 00:49:50;;;;;;;15.15;9.48;;;;;;;11.82;76.94;97923.97;10246075;28;20073;-59
2022/05/13 00:54:49;;;;;;;17.92;9.93;;;;;;;11.81;77.08;97927.47;10246956;28;20078;-59
2022/05/13 00:59:50;;;;;;;14.70;10.07;;;;;;;11.79;77.70;97931.78;10256863;28;20034;-59
2022/05/13 01:04:49;;;;;;;14.35;9.95;;;;;;;11.73;77.59;97934.41;10254101;28;20089;-59
2022/05/13 01:09:54;;;;;;;17.23;10.38;;;;;;;11.59;79.12;97930.97;10252479;28;20418;-59
2022/05/13 01:14:58;;;;;;;15.02;10.63;;;;;;;11.53;78.57;97941.41;10255273;28;20092;-59
2022/05/13 01:19:57;;;;;;;15.20;10.43;;;;;;;11.44;78.97;97932.75;10255150;28;20069;-59
2022/05/13 01:24:56;;;;;;;16.50;11.65;;;;;;;11.39;78.93;97934.50;10255708;28;20121;-59
2022/05/13 01:29:55;;;;;;;14.77;11.35;;;;;;;11.36;79.22;97931.00;10252900;28;20078;-59
2022/05/13 01:34:55;;;;;;;15.32;10.90;;;;;;;11.26;79.72;97935.34;10255909;28;20054;-59
2022/05/13 01:39:54;;;;;;;16.52;10.82;;;;;;;11.21;79.45;97919.78;10254097;28;20121;-59
2022/05/13 01:44:53;;;;;;;18.17;11.57;;;;;;;11.10;79.41;97911.13;10254694;28;20042;-59
2022/05/13 01:49:52;;;;;;;13.93;10.75;;;;;;;10.99;79.72;97900.75;10254700;28;20066;-59
2022/05/13 01:54:51;;;;;;;15.43;10.55;;;;;;;11.05;79.84;97907.66;10254436;28;20082;-59
2022/05/13 01:59:50;;;;;;;15.10;10.63;;;;;;;10.96;80.04;97911.16;10253445;28;20066;-59
2022/05/13 02:04:49;;;;;;;13.27;10.25;;;;;;;10.90;79.95;97911.13;10254364;28;20034;-59
2022/05/13 02:09:48;;;;;;;14.55;10.43;;;;;;;10.87;80.12;97920.63;10254005;28;20035;-59
2022/05/13 02:14:47;;;;;;;14.43;9.90;;;;;;;10.79;80.19;97918.88;10253158;28;20034;-59
2022/05/13 02:19:46;;;;;;;13.88;9.85;;;;;;;10.78;79.73;97914.56;10254004;28;20026;-59
2022/05/13 02:24:45;;;;;;;13.60;9.98;;;;;;;10.80;79.76;97914.56;10253201;28;20114;-59
2022/05/13 02:29:44;;;;;;;13.25;9.85;;;;;;;10.78;79.64;97921.50;10250493;28;20129;-59
2022/05/13 02:34:43;;;;;;;13.60;10.10;;;;;;;10.70;79.49;97916.28;10253988;28;20058;-59
2022/05/13 02:39:42;;;;;;;14.55;9.65;;;;;;;10.73;80.22;97920.59;10252188;28;20070;-57
2022/05/13 02:44:41;;;;;;;15.40;10.90;;;;;;;10.72;79.93;97922.34;10251689;28;20068;-57
2022/05/13 02:49:40;;;;;;;;;;;;;;;10.67;80.63;97920.63;10253309;28;20074;-58
2022/05/13 02:54:39;;;;;;;15.18;9.45;;;;;;;10.49;81.27;97922.28;10251263;28;19929;-58
2022/05/13 02:59:38;;;;;;;17.83;10.07;;;;;;;10.33;80.82;97918.81;10251206;28;20529;-57
2022/05/13 03:04:37;;;;;;;20.58;11.48;;;;;;;10.33;81.32;97930.91;10252405;28;20105;-57
2022/05/13 03:09:36;;;;;;;19.45;11.70;;;;;;;10.34;80.66;97930.06;10252055;28;20783;-58
2022/05/13 03:14:35;;;;;;;22.80;11.98;;;;;;;10.31;81.44;97932.66;10250254;28;20069;-57
2022/05/13 03:19:36;;;;;;;17.85;11.43;;;;;;;10.35;81.06;97940.41;10251663;28;20142;-57
2022/05/13 03:24:35;;;;;;;18.65;12.25;;;;;;;10.06;83.27;97936.88;10246995;28;20917;-57
2022/05/13 03:29:35;;;;;;;;;;;;;;;10.18;81.86;97952.47;10251605;28;20544;-58
2022/05/13 03:34:38;;;;;;;18.38;10.98;;;;;;;10.20;81.94;97946.44;10251900;28;20674;-57
2022/05/13 03:39:37;;;;;;;19.23;11.48;;;;;;;10.19;82.23;97952.50;10250744;28;20070;-57
2022/05/13 03:44:36;;;;;;;19.65;11.55;;;;;;;10.20;81.72;97946.44;10251310;28;20181;-56
2022/05/13 03:49:35;;;;;;;;;;;;;;;10.21;82.29;97955.06;10252303;28;20062;-58
2022/05/13 03:54:34;;;;;;;13.95;10.55;;;;;;;9.95;82.23;97939.41;10249663;28;19996;-58
2022/05/13 03:59:34;;;;;;;15.63;11.18;;;;;;;10.10;82.74;97967.16;10250882;28;20069;-57
2022/05/13 04:08:56;;;;;;;15.30;11.45;;;;;;;10.19;82.55;97969.75;10251435;28;20062;-57
2022/05/13 04:09:52;;;;;;;17.42;12.77;;;;;;;10.33;82.08;97972.41;10255924;28;20552;-57
2022/05/13 04:20:09;;;;;;;17.25;12.52;;;;;;;10.66;81.76;97981.16;10272482;28;20077;-59
2022/05/13 04:25:08;;;;;;;17.60;12.27;;;;;;;10.81;82.14;97968.22;10263505;28;20486;-57
2022/05/13 04:30:08;;;;;;;23.15;13.73;;;;;;;11.00;82.05;97988.16;10283435;28;20081;-57
2022/05/13 04:35:07;;;;;;;17.30;13.50;;;;;;;11.23;82.06;97989.91;10306381;28;20064;-57
2022/05/13 04:40:06;;;;;;;;;;;;;;;11.33;81.25;97983.84;10305532;28;20066;-58
2022/05/13 04:45:07;;;;;;;18.25;12.15;;;;;;;11.59;80.87;97988.16;10291862;28;19923;-57
2022/05/13 04:50:06;;;;;;;22.85;13.40;;;;;;;11.86;81.05;97984.66;10296219;28;20060;-57
2022/05/13 04:55:05;;;;;;;20.40;12.75;;;;;;;12.12;79.81;97978.50;10291911;28;20057;-58
2022/05/13 05:00:09;;;;;;;18.55;13.18;;;;;;;12.36;79.01;97973.22;10300835;28;20076;-58
2022/05/13 05:05:08;;;;;;;19.40;12.98;;;;;;;12.53;78.91;97970.53;10296190;28;20061;-58
2022/05/13 05:10:08;;;;;;;18.20;13.98;;;;;;;12.70;78.28;97976.53;10292761;28;20062;-59
2022/05/13 05:15:08;;;;;;;19.15;14.63;;;;;;;12.98;76.88;97984.16;10292867;28;20519;-58
2022/05/13 05:20:08;;;;;;;22.40;16.10;;;;;;;13.25;76.12;97987.44;10293788;28;20579;-57
2022/05/13 05:25:07;;;;;;;21.67;15.68;;;;;;;13.55;75.59;97975.91;10293980;28;20065;-58
2022/05/13 05:30:08;;;;;;;20.63;15.57;;;;;;;13.74;75.60;97974.84;10272446;28;20084;-58
2022/05/13 05:35:12;;;;;;;25.48;15.63;;;;;;;13.98;74.37;97976.34;10276175;28;20458;-58
2022/05/13 05:40:11;;;;;;;21.20;14.88;;;;;;;14.28;73.08;97984.69;10294038;28;20086;-57
2022/05/13 05:45:12;;;;;;;19.77;15.65;;;;;;;14.44;71.77;97979.28;10295182;28;20741;-57
2022/05/13 05:50:15;;;;;;;18.40;14.32;;;;;;;14.68;72.01;97976.31;10293914;28;20069;-58
2022/05/13 06:00:35;;;;;;;18.38;13.02;;;;;;;15.24;69.70;97969.41;10287586;28;20053;-58
2022/05/13 06:05:34;;;;;;;20.10;13.55;;;;;;;15.55;68.53;97966.31;10285967;28;20072;-57
2022/05/13 06:10:35;;;;;;;16.75;12.30;;;;;;;15.78;67.05;97959.78;10293473;28;20065;-58
2022/05/13 06:15:35;;;;;;;15.20;11.95;;;;;;;15.93;65.53;97951.69;10292619;28;20077;-58
2022/05/13 06:20:34;;;;;;;14.65;9.88;;;;;;;16.23;63.60;97952.81;10293887;28;20494;-58
2022/05/13 06:25:33;;;;;;;;;;;;;;;16.44;62.72;97946.28;10286310;28;20509;-58
2022/05/13 06:30:35;;;;;;;11.45;8.27;;;;;;;16.62;60.86;97944.13;10292084;28;20324;-57
2022/05/13 06:35:34;;;;;;;14.02;8.00;;;;;;;16.85;60.29;97926.16;10292232;28;20065;-57
2022/05/13 06:40:33;;;;;;;12.05;8.38;;;;;;;17.17;60.78;97936.75;10292284;28;20073;-58
2022/05/13 06:45:32;;;;;;;;;;;;;;;17.50;61.38;97935.06;10294252;28;20115;-58
2022/05/13 06:50:32;;;;;;;10.17;7.77;;;;;;;17.69;59.76;97917.06;10292210;28;20373;-58
2022/05/13 06:55:31;;;;;;;10.07;6.95;;;;;;;17.92;58.11;97932.22;10291250;28;20194;-58
2022/05/13 07:00:30;;;;;;;7.05;5.60;;;;;;;18.04;55.29;97921.38;10305496;28;20074;-58
2022/05/13 07:05:30;;;;;;;11.90;6.70;;;;;;;18.35;55.71;97923.13;10291167;28;20061;-58
2022/05/13 07:10:29;;;;;;;10.13;6.20;;;;;;;18.57;54.69;97916.31;10289288;28;20065;-58
2022/05/13 07:15:28;;;;;;;10.90;6.05;;;;;;;18.80;55.06;97912.97;10252137;28;20078;-58
2022/05/13 07:20:28;;;;;;;9.80;6.18;;;;;;;18.96;54.17;97897.56;10250780;28;20077;-58
2022/05/13 07:25:27;;;;;;;8.07;5.75;;;;;;;19.27;53.06;97904.44;10289015;28;20057;-58
2022/05/13 07:30:26;;;;;;;9.93;5.93;;;;;;;19.54;53.25;97909.69;10291419;28;20073;-58
2022/05/13 07:35:25;;;;;;;8.25;5.68;;;;;;;19.79;52.22;97902.69;10291340;28;20065;-58
2022/05/13 07:45:42;;;;;;;10.52;5.95;;;;;;;20.32;51.91;97887.59;10299958;28;20065;-58
2022/05/13 07:50:42;;;;;;;7.50;5.75;;;;;;;20.56;50.70;97881.38;10260875;28;20054;-58
2022/05/13 07:55:41;;;;;;;9.70;5.70;;;;;;;20.80;50.20;97882.19;10293133;28;20081;-58
2022/05/13 08:00:42;;;;;;;9.63;6.85;;;;;;;20.98;50.34;97861.25;10330672;28;20103;-58
2022/05/13 08:05:45;;;;;;;10.07;6.07;;;;;;;21.28;48.90;97874.97;10331933;28;20529;-58
2022/05/13 08:10:49;;;;;;;8.02;5.22;;;;;;;21.47;48.65;97868.00;10298854;28;20061;-58
2022/05/13 08:15:48;;;;;;;7.90;4.60;;;;;;;21.73;48.43;97866.88;10298806;28;20069;-58
2022/05/13 08:20:48;;;;;;;8.65;4.75;;;;;;;21.98;46.88;97865.75;10297104;28;20100;-58
2022/05/13 08:25:47;;;;;;;6.70;5.03;;;;;;;22.23;46.37;97856.75;10296467;28;20109;-58
2022/05/13 08:30:47;;;;;;;7.85;5.00;;;;;;;22.51;47.23;97857.16;10297162;28;20065;-58
2022/05/13 08:35:52;;;;;;;6.85;4.97;;;;;;;22.81;44.58;97851.31;10297662;28;20061;-58
2022/05/13 08:40:52;;;;;;;7.88;4.75;;;;;;;23.11;44.59;97846.31;10298038;28;20066;-58
2022/05/13 08:45:55;;;;;;;6.88;4.25;;;;;;;23.33;43.22;97847.88;10297167;28;20069;-58
2022/05/13 08:51:02;;;;;;;6.70;4.65;;;;;;;23.59;40.63;97839.47;10265763;28;20061;-58
2022/05/13 08:56:07;;;;;;;6.20;4.25;;;;;;;23.69;37.10;97828.38;10296818;28;20061;-58
2022/05/13 09:01:11;;;;;;;6.05;3.70;;;;;;;23.88;34.32;97825.59;10296477;28;20057;-58
2022/05/13 09:06:39;;;;;;;5.78;3.80;;;;;;;24.08;33.24;97824.53;10295626;28;20058;-58
2022/05/13 09:11:52;;;;;;;4.88;3.40;;;;;;;24.32;32.20;97823.19;10256557;28;20104;-58
2022/05/13 09:17:16;;;;;;;5.60;3.75;;;;;;;24.45;32.12;97802.13;10285520;28;20068;-58
2022/05/13 09:22:15;;;;;;;5.65;3.55;;;;;;;24.54;32.01;97808.72;10294396;28;20065;-58
2022/05/13 09:27:14;;;;;;;5.80;3.35;;;;;;;24.78;31.32;97806.47;10295316;28;20064;-58
2022/05/13 09:32:25;;;;;;;6.30;3.60;;;;;;;25.00;31.70;97795.50;10306357;28;20068;-58
2022/05/13 09:37:26;;;;;;;7.18;3.85;;;;;;;25.05;30.96;97788.09;10319809;28;20495;-58
2022/05/13 09:42:33;;;;;;;5.85;3.58;;;;;;;25.29;32.12;97776.03;10293752;28;20536;-58
2022/05/13 09:47:33;;;;;;;4.78;3.40;;;;;;;25.19;31.42;97761.56;10294340;28;20061;-58
2022/05/13 09:52:36;;;;;;;5.15;3.65;;;;;;;25.27;31.83;97764.63;10293758;28;20484;-56
2022/05/13 09:57:37;;;;;;;6.43;3.50;;;;;;;25.45;31.35;97762.63;10284586;28;20104;-56
2022/05/13 10:02:39;;;;;;;5.95;3.65;;;;;;;25.60;32.89;97750.25;10280210;28;20081;-57
2022/05/13 10:07:50;;;;;;;4.57;3.60;;;;;;;25.60;31.37;97754.69;10293410;28;20072;-57
2022/05/13 10:18:14;;;;;;;8.27;3.78;;;;;;;25.92;31.53;97742.91;10278960;28;20072;-57
2022/05/13 10:23:22;;;;;;;4.78;3.42;;;;;;;25.97;30.30;97731.97;10283161;28;20080;-57
2022/05/13 10:28:28;;;;;;;6.65;3.38;;;;;;;26.20;30.65;97725.19;10289521;28;20069;-57
2022/05/13 10:33:33;;;;;;;5.22;3.50;;;;;;;26.33;30.80;97739.41;10276352;28;20081;-57
2022/05/13 10:38:36;;;;;;;6.43;3.80;;;;;;;26.32;30.94;97737.72;10285214;28;20529;-57
2022/05/13 10:43:44;;;;;;;4.68;3.22;;;;;;;26.30;30.36;97728.13;10288870;28;20137;-57
2022/05/13 10:48:48;;;;;;;4.70;3.40;;;;;;;26.30;30.31;97717.47;10286162;28;20065;-57
2022/05/13 10:54:05;;;;;;;6.63;4.05;;;;;;;26.47;30.84;97711.06;10288428;28;20493;-57
2022/05/13 10:59:34;;;;;;;6.65;3.50;;;;;;;26.42;29.25;97702.50;10273081;28;20061;-57
2022/05/13 11:04:45;;;;;;;5.47;3.33;;;;;;;26.50;28.95;97697.53;10253632;28;20084;-57
2022/05/13 11:09:50;;;;;;;5.38;3.80;;;;;;;26.61;29.10;97683.53;10292052;28;20061;-57
2022/05/13 11:14:58;;;;;;;4.97;3.40;;;;;;;26.76;28.95;97677.16;10291720;28;20066;-57
2022/05/13 11:20:09;;;;;;;4.75;3.53;;;;;;;27.08;29.83;97660.81;10290023;28;20978;-57
2022/05/13 11:31:08;;;;;;;4.32;3.60;;;;;;;27.22;28.02;97663.34;10291196;28;20146;-57
2022/05/13 11:36:31;;;;;;;6.13;3.35;;;;;;;27.24;28.33;97656.13;10286032;28;20069;-57
2022/05/13 11:41:45;;;;;;;3.65;3.13;;;;;;;27.30;28.62;97642.34;10287014;28;20070;-57
2022/05/13 11:47:05;;;;;;;4.20;3.80;;;;;;;27.33;28.41;97636.81;10284249;28;20529;-57
2022/05/13 11:52:27;;;;;;;6.20;4.18;;;;;;;27.31;28.92;97636.06;10290319;28;20080;-57
2022/05/13 11:57:40;;;;;;;5.95;4.40;;;;;;;27.35;28.25;97626.91;10284557;28;20074;-57
2022/05/13 12:02:45;;;;;;;8.43;5.75;;;;;;;27.46;29.60;97623.47;10278498;28;20073;-57
2022/05/13 12:08:01;;;;;;;7.15;5.03;;;;;;;27.66;29.48;97622.06;10301124;28;20064;-57
2022/05/13 12:13:17;;;;;;;6.80;4.75;;;;;;;27.64;27.87;97613.31;10331706;28;20072;-57
2022/05/13 12:18:25;;;;;;;5.75;4.78;;;;;;;27.62;28.71;97613.41;10306625;28;20066;-57
2022/05/13 12:23:27;;;;;;;7.28;4.93;;;;;;;27.72;28.51;97597.59;10290356;28;20081;-57
2022/05/13 12:29:11;;;;;;;9.30;5.93;;;;;;;27.83;28.06;97595.00;10293139;28;20061;-57
2022/05/13 12:40:24;;;;;;;6.65;4.38;;;;;;;27.75;27.32;97578.72;10296667;28;20095;-57
2022/05/13 12:45:44;;;;;;;9.65;5.25;;;;;;;27.57;28.09;97572.06;10289485;28;20077;-57
2022/05/13 12:51:17;;;;;;;4.63;3.90;;;;;;;27.65;28.66;97555.50;10296113;28;20088;-57
2022/05/13 12:56:34;;;;;;;5.30;4.22;;;;;;;27.78;28.57;97549.16;10295537;28;20065;-57
2022/05/13 13:01:34;;;;;;;5.93;4.07;;;;;;;27.94;27.80;97545.31;10293780;28;20073;-57
2022/05/13 13:06:46;;;;;;;5.50;4.18;;;;;;;28.11;28.44;97538.78;10294310;28;20480;-57
2022/05/13 13:12:03;;;;;;;4.70;3.78;;;;;;;28.00;28.21;97531.53;10294127;28;20092;-57
2022/05/13 13:17:33;;;;;;;5.33;4.20;;;;;;;28.12;27.45;97527.13;10289359;28;20063;-57
2022/05/13 13:23:00;;;;;;;5.50;4.03;;;;;;;28.08;26.95;97518.53;10280590;28;20077;-57
2022/05/13 13:28:11;;;;;;;6.63;3.90;;;;;;;28.34;26.90;97507.66;10290359;28;20069;-57
2022/05/13 13:33:11;;;;;;;6.32;4.15;;;;;;;28.38;27.10;97509.94;10275653;28;20139;-57
2022/05/13 13:38:13;;;;;;;7.07;4.00;;;;;;;28.48;27.30;97498.56;10292629;28;20143;-57
2022/05/13 13:43:13;;;;;;;5.53;3.80;;;;;;;28.66;26.88;97491.78;10292092;28;20065;-57
2022/05/13 13:48:19;;;;;;;4.70;4.00;;;;;;;28.55;27.12;97487.28;10291481;28;20073;-57
2022/05/13 13:53:24;;;;;;;8.63;3.75;;;;;;;28.62;27.02;97485.84;10290623;28;20057;-57
2022/05/13 13:58:40;;;;;;;5.32;3.80;;;;;;;28.57;26.09;97477.34;10289592;28;20520;-57
2022/05/13 14:03:39;;;;;;;4.70;3.35;;;;;;;28.34;26.82;97475.63;10283202;28;20129;-57
2022/05/13 14:08:42;;;;;;;5.20;4.57;;;;;;;28.27;27.76;97469.94;10270019;28;20943;-57
2022/05/13 14:13:46;;;;;;;5.88;3.55;;;;;;;28.19;27.04;97473.16;10283881;28;20120;-57
2022/05/13 14:18:47;;;;;;;5.72;3.20;;;;;;;28.31;27.09;97457.19;10290141;28;20076;-56
2022/05/13 14:24:04;;;;;;;3.97;3.40;;;;;;;28.34;27.03;97464.97;10291837;28;20653;-57
2022/05/13 14:29:12;;;;;;;5.25;3.83;;;;;;;28.20;26.07;97458.03;10271147;28;20080;-57
2022/05/13 14:34:19;;;;;;;4.07;3.40;;;;;;;28.24;26.00;97455.00;10290268;28;20837;-57
2022/05/13 14:44:42;;;;;;;5.22;3.70;;;;;;;28.02;27.11;97449.59;10279734;28;20145;-57
2022/05/13 14:49:45;;;;;;;5.53;3.33;;;;;;;27.85;27.03;97452.72;10284302;28;20069;-57
2022/05/13 14:54:45;;;;;;;5.43;3.30;;;;;;;27.79;26.94;97448.69;10270236;28;20116;-57
2022/05/13 14:59:58;;;;;;;7.22;3.25;;;;;;;27.77;26.58;97448.78;10280568;28;20145;-57
2022/05/13 15:05:21;;;;;;;4.65;3.60;;;;;;;27.89;26.52;97454.16;10287399;28;20463;-57
2022/05/13 15:10:21;;;;;;;8.18;3.63;;;;;;;27.80;25.89;97451.22;10287839;28;20069;-57
2022/05/13 15:15:20;;;;;;;5.05;3.33;;;;;;;27.83;26.12;97442.16;10291291;28;20512;-57
2022/05/13 15:20:22;;;;;;;5.10;3.78;;;;;;;27.75;26.36;97442.75;10289463;28;20125;-57
2022/05/13 15:25:23;;;;;;;5.45;3.65;;;;;;;27.76;26.38;97441.75;10290275;28;20482;-57
2022/05/13 15:30:24;;;;;;;9.38;4.53;;;;;;;27.73;26.97;97439.34;10291493;28;20069;-57
2022/05/13 15:35:24;;;;;;;6.35;4.18;;;;;;;27.55;27.75;97416.72;10291938;28;20490;-57
2022/05/13 15:40:23;;;;;;;5.05;3.63;;;;;;;27.41;26.81;97429.25;10288741;28;20103;-57
2022/05/13 15:45:22;;;;;;;5.90;3.97;;;;;;;27.39;27.31;97425.00;10288559;28;20083;-57
2022/05/13 15:55:44;;;;;;;7.97;4.40;;;;;;;26.93;27.39;97362.69;10290480;28;20584;-57
2022/05/13 16:00:45;;;;;;;6.43;4.00;;;;;;;27.32;27.49;97424.59;10282722;28;20062;-57
2022/05/13 16:05:44;;;;;;;6.32;3.90;;;;;;;27.36;27.28;97419.91;10259067;28;20557;-57
2022/05/13 16:10:43;;;;;;;7.93;4.43;;;;;;;27.23;27.49;97425.28;10262247;28;20378;-57
2022/05/13 16:15:46;;;;;;;7.10;4.20;;;;;;;27.09;27.46;97425.44;10299335;28;20026;-57
2022/05/13 16:20:48;;;;;;;7.75;4.22;;;;;;;27.12;28.78;97423.44;10285621;28;20139;-57
2022/05/13 16:25:47;;;;;;;6.38;3.90;;;;;;;27.02;29.75;97427.72;10278704;28;20061;-57
2022/05/13 16:30:46;;;;;;;5.43;3.78;;;;;;;26.76;30.27;97441.06;10295392;28;20070;-57
2022/05/13 16:35:45;;;;;;;9.55;4.40;;;;;;;26.52;30.01;97434.84;10305435;28;20037;-57
2022/05/13 16:40:44;;;;;;;5.80;3.42;;;;;;;26.40;29.81;97433.91;10296276;28;20122;-57
2022/05/13 16:45:43;;;;;;;6.47;3.85;;;;;;;26.27;29.79;97433.91;10292820;28;20026;-57
2022/05/13 16:50:43;;;;;;;5.95;3.60;;;;;;;26.08;29.88;97439.63;10293919;28;20022;-56
2022/05/13 16:55:46;;;;;;;11.02;4.20;;;;;;;26.01;30.22;97438.34;10269585;28;20081;-57
2022/05/13 17:00:46;;;;;;;19.00;9.75;;;;;;;25.79;30.83;97438.13;10286969;28;20074;-57
2022/05/13 17:05:46;;;;;;;8.38;4.40;;;;;;;25.58;32.68;97453.72;10291741;28;20069;-57
2022/05/13 17:16:12;;;;;;;10.02;6.22;;;;;;;25.27;34.58;97453.00;10296573;28;20065;-57
2022/05/13 17:21:12;;;;;;;12.00;7.15;;;;;;;25.01;35.46;97460.03;10293173;28;20069;-57
2022/05/13 17:26:11;;;;;;;11.82;6.32;;;;;;;24.70;36.24;97467.25;10295331;28;20073;-58
2022/05/13 17:31:11;;;;;;;9.68;6.00;;;;;;;24.40;37.25;97470.00;10294821;28;20092;-57
2022/05/13 17:36:12;;;;;;;9.00;5.63;;;;;;;24.10;37.97;97472.69;10268940;28;20065;-57
2022/05/13 17:41:12;;;;;;;7.93;5.50;;;;;;;23.79;38.56;97479.81;10284285;28;20113;-57
2022/05/13 17:46:11;;;;;;;15.75;6.25;;;;;;;23.50;39.46;97490.31;10292947;28;20527;-57
2022/05/13 17:51:10;;;;;;;10.50;5.72;;;;;;;23.21;40.33;97484.88;10293207;28;20033;-57
2022/05/13 17:56:09;;;;;;;9.18;5.35;;;;;;;22.91;41.04;97486.59;10290268;28;20030;-57
2022/05/13 18:01:09;;;;;;;9.13;4.85;;;;;;;22.63;40.92;97482.78;10290524;28;20113;-57
2022/05/13 18:06:08;;;;;;;8.48;5.20;;;;;;;22.36;41.33;97488.56;10290859;28;20080;-57
2022/05/13 18:11:08;;;;;;;8.25;5.05;;;;;;;22.07;41.91;97499.84;10287824;28;20101;-58
2022/05/13 18:16:07;;;;;;;8.20;5.20;;;;;;;21.85;42.17;97497.38;10289242;28;20050;-58
2022/05/13 18:21:12;;;;;;;7.95;5.03;;;;;;;21.62;42.80;97509.97;10291770;28;20028;-58
2022/05/13 18:26:12;;;;;;;8.95;5.00;;;;;;;21.36;43.62;97516.53;10276933;28;20535;-57
2022/05/13 18:31:11;;;;;;;9.10;5.10;;;;;;;21.17;44.08;97518.28;10283359;28;20081;-58
2022/05/13 18:36:10;;;;;;;9.32;5.43;;;;;;;20.98;45.22;97524.44;10265447;28;20038;-58
2022/05/13 18:46:34;;;;;;;9.25;5.47;;;;;;;20.67;46.74;97536.41;10289869;28;20073;-58
2022/05/13 18:51:33;;;;;;;12.52;6.70;;;;;;;20.45;48.28;97533.03;10299223;28;20060;-58
2022/05/13 18:56:35;;;;;;;12.48;6.95;;;;;;;20.34;49.50;97545.78;10291428;28;20049;-58
2022/05/13 19:01:35;;;;;;;9.85;6.03;;;;;;;20.25;49.71;97539.97;10286478;28;20469;-58
2022/05/13 19:06:36;;;;;;;13.02;5.88;;;;;;;20.18;49.68;97549.06;10277830;28;20536;-58
2022/05/13 19:11:35;;;;;;;9.80;6.80;;;;;;;20.11;50.75;97542.34;10289108;28;20062;-58
2022/05/13 19:16:35;;;;;;;12.32;6.45;;;;;;;19.97;51.62;97540.31;10291180;28;20535;-58
2022/05/13 19:21:34;;;;;;;11.63;6.45;;;;;;;19.84;52.62;97549.66;10290840;28;20131;-58
2022/05/13 19:26:34;;;;;;;11.65;6.30;;;;;;;19.77;52.79;97543.78;10302299;28;20025;-58
2022/05/13 19:31:36;;;;;;;12.68;6.97;;;;;;;19.67;53.36;97552.97;10290233;28;20078;-58
2022/05/13 19:36:35;;;;;;;17.30;9.95;;;;;;;19.56;54.19;97550.78;10292387;28;20081;-58
2022/05/13 19:41:35;;;;;;;13.40;7.72;;;;;;;19.47;54.46;97560.81;10300681;28;20033;-58
2022/05/13 19:46:35;;;;;;;11.63;7.70;;;;;;;19.36;54.84;97554.16;10303148;28;20069;-57
2022/05/13 19:51:34;;;;;;;12.27;7.68;;;;;;;19.18;55.84;97555.75;10304598;28;20523;-58
2022/05/13 19:56:33;;;;;;;20.63;9.57;;;;;;;19.02;56.19;97554.66;10301775;28;20077;-58
2022/05/13 20:01:32;;;;;;;17.65;8.63;;;;;;;18.86;57.43;97559.63;10302979;28;20057;-58
2022/05/13 20:11:49;;;;;;;12.75;8.93;;;;;;;18.42;58.75;97558.59;10291627;28;20061;-58
2022/05/13 20:16:48;;;;;;;15.55;9.35;;;;;;;18.13;59.16;97553.44;10305316;28;20070;-58
2022/05/13 20:27:04;;;;;;;13.27;8.98;;;;;;;17.76;60.67;97557.31;10261407;28;20545;-58
2022/05/13 20:32:08;;;;;;;14.48;9.18;;;;;;;17.66;60.95;97558.50;10298010;28;20070;-58
2022/05/13 20:37:07;;;;;;;13.57;8.60;;;;;;;17.52;61.09;97556.31;10296145;28;20846;-58
2022/05/13 20:42:06;;;;;;;13.98;8.57;;;;;;;17.44;61.53;97560.06;10302490;28;20485;-58
2022/05/13 20:47:05;;;;;;;13.63;8.80;;;;;;;17.21;62.56;97539.81;10300052;28;20064;-58
2022/05/13 20:52:04;;;;;;;13.98;8.98;;;;;;;17.15;62.96;97551.34;10293695;28;20709;-58
2022/05/13 20:57:03;;;;;;;16.00;8.93;;;;;;;16.98;63.73;97556.25;10297717;28;20085;-58
2022/05/13 21:02:04;;;;;;;16.38;10.00;;;;;;;16.87;63.75;97554.81;10296097;28;20079;-58
2022/05/13 21:07:04;;;;;;;13.07;9.20;;;;;;;16.73;64.21;97555.16;10297053;28;20065;-58
2022/05/13 21:12:03;;;;;;;16.83;9.43;;;;;;;16.76;64.12;97558.63;10297310;28;20477;-57
2022/05/13 21:17:02;;;;;;;13.68;9.85;;;;;;;16.69;64.71;97553.53;10294987;28;20087;-57
2022/05/13 21:22:03;;;;;;;15.27;10.45;;;;;;;16.66;64.76;97550.16;10293042;28;20442;-59
2022/05/13 21:27:03;;;;;;;14.55;10.20;;;;;;;16.50;65.59;97553.19;10310907;28;20073;-59
2022/05/13 21:37:20;;;;;;;14.30;10.00;;;;;;;16.37;66.45;97557.09;10260478;28;20073;-57
2022/05/13 21:42:19;;;;;;;;;;;;;;;16.34;66.64;97551.91;10315371;28;20107;-59
2022/05/13 21:47:21;;;;;;;20.50;11.00;;;;;;;16.29;66.80;97556.41;10316677;28;19999;-59
2022/05/13 21:52:20;;;;;;;15.65;11.05;;;;;;;16.15;66.70;97554.16;10306986;28;20100;-59
2022/05/13 21:57:23;;;;;;;;;;;;;;;15.98;67.62;97552.00;10336288;28;20710;-57
2022/05/13 22:02:23;;;;;;;14.57;10.73;;;;;;;15.84;67.69;97551.50;10310727;28;20093;-57
2022/05/13 22:07:22;;;;;;;16.50;10.90;;;;;;;15.82;67.72;97556.75;10293945;28;20077;-57
2022/05/13 22:12:20;;;;;;;;;;;;;;;15.72;68.07;97559.63;10291593;28;20081;-58
2022/05/13 22:17:19;;;;;;;14.35;9.60;;;;;;;15.59;69.00;97556.44;10292555;28;20011;-57
2022/05/13 22:22:19;;;;;;;13.40;9.75;;;;;;;15.48;69.77;97551.44;10293604;28;20022;-57
2022/05/13 22:27:18;;;;;;;13.20;9.38;;;;;;;15.39;70.03;97547.31;10293891;28;20061;-58
2022/05/13 22:32:17;;;;;;;;;;;;;;;15.32;70.25;97553.59;10290713;28;20060;-57
2022/05/13 22:37:17;;;;;;;15.30;10.60;;;;;;;15.23;70.66;97545.97;10292361;28;19917;-57
2022/05/13 22:42:16;;;;;;;14.32;10.48;;;;;;;15.22;70.28;97542.50;10293045;28;20065;-57
2022/05/13 22:47:15;;;;;;;;;;;;;;;15.17;70.86;97538.25;10290780;28;20073;-57
2022/05/13 22:52:13;;;;;;;16.50;11.07;;;;;;;15.13;70.89;97529.63;10275546;28;19956;-58
2022/05/13 22:57:13;;;;;;;21.02;12.95;;;;;;;14.96;71.92;97524.75;10291352;28;20108;-57
2022/05/13 23:02:12;;;;;;;20.13;12.98;;;;;;;14.91;71.62;97524.00;10289717;28;20135;-57
2022/05/13 23:12:29;;;;;;;19.45;13.80;;;;;;;14.72;73.18;97533.16;10285854;28;20050;-57
2022/05/13 23:17:28;;;;;;;;;;;;;;;14.67;73.00;97533.22;10305338;28;20841;-58
2022/05/13 23:22:27;;;;;;;18.67;13.00;;;;;;;14.62;72.64;97535.06;10287576;28;19957;-57
2022/05/13 23:27:26;;;;;;;17.83;12.05;;;;;;;14.59;72.88;97532.50;10284782;28;20092;-57
2022/05/13 23:32:25;;;;;;;16.45;12.45;;;;;;;14.50;73.04;97530.06;10310667;28;20088;-57
2022/05/13 23:37:24;;;;;;;;;;;;;;;14.39;73.94;97532.91;10303949;28;20544;-57
2022/05/13 23:42:23;;;;;;;17.55;12.90;;;;;;;14.30;74.01;97518.28;10307902;28;20004;-58
2022/05/13 23:47:22;;;;;;;16.20;12.50;;;;;;;14.20;74.64;97521.97;10305996;28;20453;-57
2022/05/13 23:57:38;;;;;;;20.50;14.32;;;;;;;13.80;75.09;97487.91;10288189;28;20513;-57
